createdAt,value
2018-07-12T00:02:26.578Z,75.50
2018-07-12T00:04:55.148Z,75.20
2018-07-12T00:07:23.695Z,75.40
2018-07-12T00:09:52.251Z,74.60
2018-07-12T00:12:20.799Z,75.00
2018-07-12T00:14:49.366Z,75.10
2018-07-12T00:17:18.230Z,75.30
2018-07-12T00:19:46.786Z,74.90
2018-07-12T00:22:15.345Z,75.20
2018-07-12T00:24:43.905Z,75.60
2018-07-12T00:27:12.450Z,75.00
2018-07-12T00:29:41.018Z,75.20
2018-07-12T00:32:09.555Z,75.00
2018-07-12T00:34:38.120Z,75.30
2018-07-12T00:37:06.687Z,75.40
2018-07-12T00:39:35.226Z,75.70
2018-07-12T00:42:04.087Z,74.90
2018-07-12T00:47:01.369Z,75.40
2018-07-12T00:49:29.902Z,75.50
2018-07-12T00:51:58.470Z,75.70
2018-07-12T00:54:27.078Z,75.60
2018-07-12T00:56:55.639Z,76.10
2018-07-12T00:59:24.203Z,75.50
2018-07-12T01:01:52.790Z,75.70
2018-07-12T01:04:22.239Z,75.40
2018-07-12T01:06:50.819Z,76.00
2018-07-12T01:09:19.371Z,75.60
2018-07-12T01:11:47.950Z,75.70
2018-07-12T01:14:16.497Z,76.30
2018-07-12T01:16:45.067Z,75.80
2018-07-12T01:19:13.619Z,76.10
2018-07-12T01:21:42.373Z,76.30
2018-07-12T01:24:10.922Z,75.80
2018-07-12T01:26:39.484Z,75.60
2018-07-12T01:29:08.023Z,75.50
2018-07-12T01:31:36.601Z,76.50
2018-07-12T01:34:05.367Z,75.90
2018-07-12T01:36:33.947Z,75.80
2018-07-12T01:39:02.535Z,75.30
2018-07-12T01:43:59.865Z,74.50
2018-07-12T01:46:28.434Z,74.60
2018-07-12T01:48:56.987Z,76.00
2018-07-12T01:51:25.555Z,76.30
2018-07-12T01:53:54.107Z,76.70
2018-07-12T01:56:24.646Z,77.20
2018-07-12T01:58:53.203Z,77.10
2018-07-12T02:01:21.767Z,77.10
2018-07-12T02:03:50.316Z,76.70
2018-07-12T02:06:18.871Z,76.40
2018-07-12T02:08:47.427Z,76.30
2018-07-12T02:11:15.987Z,76.40
2018-07-12T02:13:44.547Z,76.10
2018-07-12T02:16:13.107Z,76.20
2018-07-12T02:18:41.660Z,76.80
2018-07-12T02:21:10.231Z,76.70
2018-07-12T02:23:38.777Z,76.20
2018-07-12T02:26:07.361Z,76.40
2018-07-12T02:28:35.943Z,76.20
2018-07-12T02:31:04.680Z,76.30
2018-07-12T02:33:33.227Z,76.50
2018-07-12T02:36:01.796Z,76.50
2018-07-12T02:38:30.343Z,76.50
2018-07-12T02:40:58.917Z,76.40
2018-07-12T02:43:27.483Z,76.50
2018-07-12T02:45:56.055Z,76.20
2018-07-12T02:48:24.606Z,75.80
2018-07-12T02:50:53.188Z,76.20
2018-07-12T02:53:21.730Z,76.50
2018-07-12T02:55:50.283Z,76.40
2018-07-12T02:58:18.867Z,76.50
2018-07-12T03:00:47.404Z,76.50
2018-07-12T03:03:15.962Z,76.00
2018-07-12T03:05:44.520Z,76.00
2018-07-12T03:08:13.079Z,76.00
2018-07-12T03:10:41.631Z,75.90
2018-07-12T03:13:10.190Z,76.10
2018-07-12T03:15:38.770Z,75.40
2018-07-12T03:18:07.329Z,75.30
2018-07-12T03:20:35.886Z,75.40
2018-07-12T03:23:04.442Z,74.90
2018-07-12T03:25:32.987Z,75.40
2018-07-12T03:28:01.593Z,76.10
2018-07-12T03:30:30.323Z,75.80
2018-07-12T03:32:58.990Z,75.60
2018-07-12T03:35:27.671Z,74.80
2018-07-12T03:37:56.232Z,74.40
2018-07-12T03:40:25.000Z,74.80
2018-07-12T03:42:53.780Z,74.90
2018-07-12T03:45:28.047Z,74.20
2018-07-12T03:47:56.626Z,74.60
2018-07-12T03:50:25.179Z,74.90
2018-07-12T03:52:53.758Z,75.30
2018-07-12T03:55:22.335Z,74.50
2018-07-12T03:57:50.899Z,74.70
2018-07-12T04:00:19.452Z,75.10
2018-07-12T04:02:48.067Z,75.50
2018-07-12T04:05:16.610Z,74.40
2018-07-12T04:07:45.283Z,75.10
2018-07-12T04:10:14.165Z,74.90
2018-07-12T04:12:47.626Z,75.00
2018-07-12T04:15:16.188Z,74.60
2018-07-12T04:17:44.760Z,74.60
2018-07-12T04:20:12.764Z,73.70
2018-07-12T04:22:41.331Z,74.10
2018-07-12T04:25:09.884Z,74.60
2018-07-12T04:27:38.438Z,74.60
2018-07-12T04:30:07.006Z,74.20
2018-07-12T04:32:35.788Z,74.20
2018-07-12T04:35:04.399Z,73.70
2018-07-12T04:37:33.263Z,73.30
2018-07-12T04:40:02.287Z,73.60
2018-07-12T04:42:31.678Z,74.20
2018-07-12T04:45:01.740Z,74.20
2018-07-12T04:47:30.308Z,73.10
2018-07-12T04:49:58.856Z,73.10
2018-07-12T04:52:27.430Z,72.80
2018-07-12T04:54:56.266Z,73.20
2018-07-12T04:57:24.882Z,73.40
2018-07-12T04:59:53.427Z,74.50
2018-07-12T05:02:22.017Z,73.60
2018-07-12T05:04:50.546Z,73.40
2018-07-12T05:07:19.142Z,73.30
2018-07-12T05:09:47.682Z,73.50
2018-07-12T05:12:16.251Z,73.40
2018-07-12T05:17:14.606Z,72.80
2018-07-12T05:19:43.147Z,72.20
2018-07-12T05:22:11.702Z,73.10
2018-07-12T05:24:40.259Z,72.80
2018-07-12T05:27:08.816Z,73.60
2018-07-12T05:29:37.382Z,73.60
2018-07-12T05:32:05.935Z,73.30
2018-07-12T05:34:34.533Z,73.20
2018-07-12T05:37:04.819Z,73.30
2018-07-12T05:39:34.528Z,73.70
2018-07-12T05:42:04.227Z,73.90
2018-07-12T05:44:33.947Z,73.90
2018-07-12T05:47:04.196Z,74.40
2018-07-12T05:49:34.491Z,73.60
2018-07-12T05:52:07.620Z,73.90
2018-07-12T05:54:37.351Z,73.80
2018-07-12T05:57:07.387Z,73.20
2018-07-12T05:59:39.183Z,73.50
2018-07-12T06:02:18.716Z,73.40
2018-07-12T06:04:48.855Z,72.80
2018-07-12T06:07:30.008Z,72.50
2018-07-12T06:09:59.742Z,72.00
2018-07-12T06:12:29.424Z,70.60
2018-07-12T06:14:59.114Z,71.70
2018-07-12T06:17:29.412Z,70.80
2018-07-12T06:20:00.263Z,70.70
2018-07-12T06:22:29.972Z,70.80
2018-07-12T06:24:59.707Z,71.60
2018-07-12T06:27:29.408Z,72.50
2018-07-12T06:29:59.176Z,72.80
2018-07-12T06:32:36.521Z,72.60
2018-07-12T06:35:06.795Z,72.80
2018-07-12T06:37:36.788Z,72.90
2018-07-12T06:40:07.792Z,72.70
2018-07-12T06:42:38.459Z,72.70
2018-07-12T06:45:08.691Z,72.70
2018-07-12T06:47:40.032Z,73.80
2018-07-12T06:50:10.579Z,73.70
2018-07-12T06:52:40.439Z,73.30
2018-07-12T06:55:10.708Z,73.80
2018-07-12T06:57:41.301Z,73.10
2018-07-12T07:00:11.440Z,74.10
2018-07-12T07:02:42.455Z,73.20
2018-07-12T07:05:12.359Z,73.30
2018-07-12T07:07:42.133Z,73.30
2018-07-12T07:10:11.839Z,73.10
2018-07-12T07:12:42.252Z,72.50
2018-07-12T07:15:11.961Z,72.80
2018-07-12T07:17:41.639Z,73.20
2018-07-12T07:20:11.356Z,73.30
2018-07-12T07:22:41.260Z,73.60
2018-07-12T07:25:11.032Z,73.00
2018-07-12T07:27:43.103Z,72.60
2018-07-12T07:30:12.855Z,73.20
2018-07-12T07:32:42.555Z,72.20
2018-07-12T07:35:12.279Z,72.20
2018-07-12T07:37:41.964Z,72.20
2018-07-12T07:40:11.687Z,73.30
2018-07-12T07:42:41.385Z,74.20
2018-07-12T07:45:16.751Z,73.90
2018-07-12T07:47:46.411Z,73.50
2018-07-12T07:50:16.105Z,73.50
2018-07-12T07:52:45.779Z,73.70
2018-07-12T07:55:15.454Z,74.40
2018-07-12T07:57:45.176Z,75.20
2018-07-12T08:00:14.873Z,75.90
2018-07-12T08:02:44.543Z,75.60
2018-07-12T08:05:14.383Z,75.90
2018-07-12T08:07:44.543Z,76.20
2018-07-12T08:10:14.979Z,76.30
2018-07-12T08:12:45.074Z,76.80
2018-07-12T08:15:14.854Z,77.30
2018-07-12T08:17:44.502Z,76.90
2018-07-12T08:20:14.556Z,76.60
2018-07-12T08:22:44.236Z,76.90
2018-07-12T08:25:13.921Z,76.70
2018-07-12T08:27:54.755Z,77.40
2018-07-12T08:30:24.451Z,76.10
2018-07-12T08:32:54.109Z,75.60
2018-07-12T08:35:23.773Z,74.70
2018-07-12T08:37:53.532Z,74.40
2018-07-12T08:40:23.216Z,73.70
2018-07-12T08:42:52.962Z,73.50
2018-07-12T08:45:28.411Z,73.50
2018-07-12T08:48:01.215Z,72.50
2018-07-12T08:53:01.164Z,72.70
2018-07-12T08:55:30.883Z,72.00
2018-07-12T08:58:00.544Z,71.60
2018-07-12T09:00:30.611Z,70.50
2018-07-12T09:03:00.354Z,69.50
2018-07-12T09:05:30.231Z,70.50
2018-07-12T09:07:59.917Z,70.70
2018-07-12T09:12:58.890Z,72.70
2018-07-12T09:15:28.624Z,71.40
2018-07-12T09:17:58.316Z,71.70
2018-07-12T09:20:28.207Z,72.20
2018-07-12T09:22:57.926Z,73.20
2018-07-12T09:25:27.863Z,72.20
2018-07-12T09:27:57.763Z,70.30
2018-07-12T09:30:27.459Z,70.40
2018-07-12T09:32:57.188Z,69.00
2018-07-12T09:35:26.902Z,69.00
2018-07-12T09:37:56.619Z,69.10
2018-07-12T09:40:26.287Z,68.20
2018-07-12T09:42:56.107Z,68.80
2018-07-12T09:45:31.677Z,68.50
2018-07-12T09:48:01.388Z,67.30
2018-07-12T09:50:31.231Z,66.00
2018-07-12T09:53:01.059Z,65.70
2018-07-12T09:55:30.741Z,66.60
2018-07-12T09:58:11.907Z,67.70
2018-07-12T10:00:47.402Z,66.20
2018-07-12T10:03:21.092Z,66.40
2018-07-12T10:05:56.191Z,67.20
2018-07-12T10:08:31.343Z,66.10
2018-07-12T10:11:07.703Z,66.50
2018-07-12T10:13:42.747Z,65.70
2018-07-12T10:16:21.515Z,66.60
2018-07-12T10:18:51.195Z,65.30
2018-07-12T10:21:20.898Z,64.10
2018-07-12T10:23:50.592Z,64.80
2018-07-12T10:26:20.268Z,63.90
2018-07-12T10:28:49.990Z,65.80
2018-07-12T10:31:19.956Z,65.40
2018-07-12T10:33:49.715Z,64.10
2018-07-12T10:36:20.156Z,64.40
2018-07-12T10:38:49.838Z,65.40
2018-07-12T10:41:19.508Z,63.70
2018-07-12T10:43:49.396Z,65.10
2018-07-12T10:46:19.063Z,62.80
2018-07-12T10:48:48.847Z,61.30
2018-07-12T10:51:18.558Z,62.70
2018-07-12T10:53:48.273Z,62.90
2018-07-12T10:56:18.045Z,63.60
2018-07-12T10:58:47.751Z,62.70
2018-07-12T11:01:17.477Z,61.80
2018-07-12T11:03:47.337Z,61.30
2018-07-12T11:06:17.615Z,62.80
2018-07-12T11:08:47.266Z,61.60
2018-07-12T11:11:17.306Z,61.90
2018-07-12T11:13:51.414Z,62.20
2018-07-12T11:16:21.143Z,60.90
2018-07-12T11:18:50.823Z,60.30
2018-07-12T11:21:20.519Z,59.70
2018-07-12T11:23:50.209Z,59.60
2018-07-12T11:26:21.447Z,58.50
2018-07-12T11:28:51.687Z,59.80
2018-07-12T11:31:21.407Z,58.40
2018-07-12T11:33:51.734Z,58.90
2018-07-12T11:36:21.707Z,59.70
2018-07-12T11:38:51.553Z,58.80
2018-07-12T11:41:21.279Z,59.10
2018-07-12T11:43:51.032Z,60.60
2018-07-12T11:46:20.744Z,61.10
2018-07-12T11:48:50.444Z,61.00
2018-07-12T11:51:20.159Z,59.40
2018-07-12T11:53:49.834Z,59.20
2018-07-12T11:56:19.522Z,61.20
2018-07-12T11:58:49.219Z,61.80
2018-07-12T12:01:18.912Z,61.60
2018-07-12T12:03:50.701Z,60.00
2018-07-12T12:06:21.091Z,60.60
2018-07-12T12:08:50.738Z,59.60
2018-07-12T12:11:20.435Z,58.00
2018-07-12T12:13:50.119Z,58.40
2018-07-12T12:16:19.814Z,58.30
2018-07-12T12:18:49.483Z,58.40
2018-07-12T12:21:19.199Z,58.00
2018-07-12T12:23:48.899Z,57.90
2018-07-12T12:26:18.591Z,58.90
2018-07-12T12:28:48.254Z,59.50
2018-07-12T12:31:17.964Z,58.30
2018-07-12T12:33:47.633Z,60.10
2018-07-12T12:36:17.309Z,59.20
2018-07-12T12:38:46.980Z,60.10
2018-07-12T12:41:16.671Z,60.10
2018-07-12T12:43:46.352Z,60.50
2018-07-12T12:46:16.031Z,59.70
2018-07-12T12:48:45.714Z,60.50
2018-07-12T12:51:17.124Z,57.50
2018-07-12T12:53:46.800Z,58.40
2018-07-12T12:56:16.494Z,59.20
2018-07-12T12:58:46.135Z,57.20
2018-07-12T13:01:15.844Z,59.00
2018-07-12T13:03:45.499Z,59.00
2018-07-12T13:06:15.183Z,56.40
2018-07-12T13:08:44.844Z,57.60
2018-07-12T13:11:14.535Z,57.90
2018-07-12T13:13:44.262Z,57.20
2018-07-12T13:16:14.060Z,57.30
2018-07-12T13:18:43.792Z,56.40
2018-07-12T13:21:13.511Z,56.90
2018-07-12T13:23:43.171Z,56.40
2018-07-12T13:26:12.956Z,57.00
2018-07-12T13:28:42.837Z,57.60
2018-07-12T13:31:12.638Z,58.00
2018-07-12T13:33:42.353Z,57.90
2018-07-12T13:36:12.094Z,56.70
2018-07-12T13:38:41.821Z,57.30
2018-07-12T13:41:11.618Z,58.80
2018-07-12T13:43:41.350Z,59.30
2018-07-12T13:46:11.211Z,57.40
2018-07-12T13:48:40.909Z,56.80
2018-07-12T13:51:10.756Z,57.80
2018-07-12T13:53:40.636Z,56.30
2018-07-12T13:56:10.406Z,58.00
2018-07-12T13:58:40.138Z,58.40
2018-07-12T14:01:10.538Z,58.50
2018-07-12T14:03:40.351Z,60.00
2018-07-12T14:06:10.089Z,57.80
2018-07-12T14:08:39.878Z,58.00
2018-07-12T14:11:09.651Z,58.10
2018-07-12T14:13:39.420Z,58.20
2018-07-12T14:16:09.059Z,56.40
2018-07-12T14:18:38.762Z,56.70
2018-07-12T14:21:08.395Z,58.30
2018-07-12T14:23:38.094Z,57.30
2018-07-12T14:26:07.802Z,57.40
2018-07-12T14:28:37.499Z,56.10
2018-07-12T14:31:07.178Z,55.90
2018-07-12T14:33:36.930Z,54.90
2018-07-12T14:36:06.702Z,55.00
2018-07-12T14:38:36.523Z,55.00
2018-07-12T14:41:06.243Z,54.10
2018-07-12T14:46:05.243Z,54.20
2018-07-12T14:48:34.950Z,54.90
2018-07-12T14:51:04.643Z,54.50
2018-07-12T14:53:34.330Z,54.60
2018-07-12T14:56:04.078Z,54.30
2018-07-12T14:58:33.747Z,54.80
2018-07-12T15:01:03.471Z,55.80
2018-07-12T15:03:33.206Z,54.90
2018-07-12T15:06:02.902Z,53.90
2018-07-12T15:08:32.558Z,53.80
2018-07-12T15:11:02.298Z,55.50
2018-07-12T15:13:31.976Z,53.60
2018-07-12T15:16:01.668Z,52.70
2018-07-12T15:18:31.355Z,52.80
2018-07-12T15:21:01.394Z,53.30
2018-07-12T15:23:31.333Z,53.40
2018-07-12T15:26:02.009Z,54.60
2018-07-12T15:28:32.235Z,53.80
2018-07-12T15:31:01.934Z,55.10
2018-07-12T15:33:31.631Z,54.80
2018-07-12T15:36:01.323Z,54.00
2018-07-12T15:38:30.973Z,53.80
2018-07-12T15:41:00.671Z,53.70
2018-07-12T15:43:30.350Z,52.60
2018-07-12T15:46:00.040Z,52.30
2018-07-12T15:48:29.738Z,53.40
2018-07-12T15:50:59.459Z,54.00
2018-07-12T15:53:29.157Z,53.70
2018-07-12T15:55:58.878Z,53.00
2018-07-12T15:58:28.554Z,53.30
2018-07-12T16:00:58.242Z,53.90
2018-07-12T16:03:27.938Z,53.80
2018-07-12T16:05:57.631Z,54.00
2018-07-12T16:08:27.334Z,52.20
2018-07-12T16:10:57.019Z,52.20
2018-07-12T16:13:26.722Z,51.40
2018-07-12T16:15:56.626Z,51.30
2018-07-12T16:18:26.474Z,52.20
2018-07-12T16:20:56.184Z,51.30
2018-07-12T16:23:25.859Z,49.50
2018-07-12T16:25:55.591Z,50.00
2018-07-12T16:28:25.266Z,50.50
2018-07-12T16:30:54.979Z,50.60
2018-07-12T16:33:24.659Z,50.10
2018-07-12T16:35:54.402Z,51.10
2018-07-12T16:38:24.051Z,51.30
2018-07-12T16:40:53.802Z,51.00
2018-07-12T16:43:23.475Z,50.80
2018-07-12T16:45:54.453Z,50.50
2018-07-12T16:48:24.481Z,50.90
2018-07-12T16:50:54.975Z,51.90
2018-07-12T16:53:24.702Z,51.40
2018-07-12T16:55:54.760Z,50.80
2018-07-12T16:58:25.720Z,51.20
2018-07-12T17:00:55.545Z,51.20
2018-07-12T17:03:25.488Z,50.00
2018-07-12T17:05:56.525Z,50.90
2018-07-12T17:08:26.188Z,49.40
2018-07-12T17:10:55.969Z,49.60
2018-07-12T17:13:25.621Z,49.20
2018-07-12T17:15:55.339Z,49.40
2018-07-12T17:18:25.106Z,48.50
2018-07-12T17:20:55.025Z,48.90
2018-07-12T17:23:24.754Z,49.20
2018-07-12T17:25:54.408Z,50.10
2018-07-12T17:28:24.083Z,49.50
2018-07-12T17:30:53.862Z,49.40
2018-07-12T17:33:23.733Z,49.20
2018-07-12T17:35:53.610Z,48.80
2018-07-12T17:38:23.321Z,49.00
2018-07-12T17:40:54.294Z,49.30
2018-07-12T17:43:31.630Z,49.20
2018-07-12T17:46:01.844Z,49.00
2018-07-12T17:48:31.535Z,49.00
2018-07-12T17:51:01.250Z,48.70
2018-07-12T17:53:31.079Z,49.10
2018-07-12T17:56:01.483Z,49.00
2018-07-12T17:58:31.247Z,49.20
2018-07-12T18:01:01.007Z,49.50
2018-07-12T18:03:30.735Z,49.50
2018-07-12T18:06:00.550Z,49.70
2018-07-12T18:08:31.383Z,49.80
2018-07-12T18:11:01.331Z,49.70
2018-07-12T18:13:31.150Z,49.90
2018-07-12T18:16:07.804Z,50.00
2018-07-12T18:18:38.417Z,49.70
2018-07-12T18:21:09.190Z,49.90
2018-07-12T18:23:39.502Z,51.90
2018-07-12T18:26:13.891Z,51.00
2018-07-12T18:28:47.744Z,53.80
2018-07-12T18:31:17.899Z,55.10
2018-07-12T18:33:47.599Z,53.10
2018-07-12T18:36:17.279Z,55.70
2018-07-12T18:38:46.984Z,54.00
2018-07-12T18:41:16.703Z,53.50
2018-07-12T18:43:46.447Z,51.90
2018-07-12T18:46:16.199Z,52.00
2018-07-12T18:48:45.882Z,52.20
2018-07-12T18:51:15.569Z,51.70
2018-07-12T18:53:45.606Z,51.80
2018-07-12T18:56:15.297Z,51.80
2018-07-12T18:58:44.974Z,51.80
2018-07-12T19:01:14.643Z,52.00
2018-07-12T19:03:44.335Z,52.50
2018-07-12T19:06:14.032Z,52.50
2018-07-12T19:08:43.805Z,54.50
2018-07-12T19:11:13.738Z,55.60
2018-07-12T19:13:43.417Z,54.90
2018-07-12T19:16:13.087Z,56.80
2018-07-12T19:18:42.815Z,57.60
2018-07-12T19:21:15.057Z,57.50
2018-07-12T19:23:44.891Z,58.10
2018-07-12T19:26:15.127Z,59.10
2018-07-12T19:28:45.318Z,58.60
2018-07-12T19:31:16.815Z,59.50
2018-07-12T19:33:48.258Z,60.00
2018-07-12T19:36:17.924Z,60.20
2018-07-12T19:38:47.594Z,60.70
2018-07-12T19:41:17.443Z,61.10
2018-07-12T19:43:47.282Z,61.50
2018-07-12T19:46:17.011Z,61.10
2018-07-12T19:48:46.809Z,61.00
2018-07-12T19:51:16.475Z,61.00
2018-07-12T19:53:46.150Z,61.60
2018-07-12T19:56:15.824Z,62.20
2018-07-12T20:01:14.824Z,61.50
2018-07-12T20:03:44.520Z,61.70
2018-07-12T20:06:14.522Z,61.40
2018-07-12T20:08:44.207Z,62.30
2018-07-12T20:11:13.971Z,62.50
2018-07-12T20:13:43.640Z,62.40
2018-07-12T20:16:13.767Z,62.80
2018-07-12T20:18:43.803Z,62.30
2018-07-12T20:21:13.519Z,62.30
2018-07-12T20:23:43.195Z,62.20
2018-07-12T20:26:12.899Z,62.20
2018-07-12T20:28:44.200Z,63.60
2018-07-12T20:31:14.269Z,62.90
2018-07-12T20:33:44.552Z,62.90
2018-07-12T20:36:14.334Z,62.70
2018-07-12T20:38:44.011Z,63.10
2018-07-12T20:41:13.716Z,63.00
2018-07-12T20:43:44.041Z,63.80
2018-07-12T20:46:13.993Z,63.70
2018-07-12T20:48:43.698Z,63.90
2018-07-12T20:51:13.422Z,64.00
2018-07-12T20:53:43.103Z,64.10
2018-07-12T20:56:12.842Z,64.40
2018-07-12T20:58:42.506Z,64.50
2018-07-12T21:01:12.186Z,64.70
2018-07-12T21:03:41.850Z,65.10
2018-07-12T21:06:11.535Z,65.90
2018-07-12T21:08:41.214Z,66.10
2018-07-12T21:11:16.526Z,65.40
2018-07-12T21:13:46.183Z,65.00
2018-07-12T21:16:15.866Z,66.20
2018-07-12T21:18:45.499Z,65.90
2018-07-12T21:21:15.182Z,66.00
2018-07-12T21:23:44.892Z,65.40
2018-07-12T21:26:14.725Z,65.20
2018-07-12T21:28:44.362Z,65.70
2018-07-12T21:31:14.030Z,65.90
2018-07-12T21:33:43.765Z,66.90
2018-07-12T21:36:13.602Z,67.00
2018-07-12T21:38:43.314Z,67.00
2018-07-12T21:41:12.981Z,67.80
2018-07-12T21:43:42.639Z,68.10
2018-07-12T21:46:12.314Z,67.40
2018-07-12T21:48:41.937Z,68.40
2018-07-12T21:51:11.630Z,67.60
2018-07-12T21:53:41.288Z,67.70
2018-07-12T21:56:10.958Z,68.30
2018-07-12T21:58:40.598Z,68.10
2018-07-12T22:01:10.347Z,68.00
2018-07-12T22:03:40.311Z,68.20
2018-07-12T22:06:09.994Z,68.50
2018-07-12T22:08:40.298Z,69.20
2018-07-12T22:11:09.990Z,68.90
2018-07-12T22:13:39.631Z,68.90
2018-07-12T22:16:09.300Z,68.90
2018-07-12T22:18:38.948Z,69.40
2018-07-12T22:21:08.700Z,69.20
2018-07-12T22:23:38.514Z,69.50
2018-07-12T22:26:08.187Z,69.70
2018-07-12T22:28:37.847Z,70.00
2018-07-12T22:31:07.528Z,69.90
2018-07-12T22:33:37.203Z,70.20
2018-07-12T22:36:06.882Z,70.20
2018-07-12T22:38:36.542Z,71.30
2018-07-12T22:41:06.238Z,71.20
2018-07-12T22:43:35.899Z,70.70
2018-07-12T22:48:34.863Z,70.70
2018-07-12T22:51:04.722Z,70.70
2018-07-12T22:53:34.383Z,71.10
2018-07-12T22:56:04.090Z,71.10
2018-07-12T22:58:33.758Z,71.10
2018-07-12T23:01:03.503Z,71.60
2018-07-12T23:03:33.211Z,71.90
2018-07-12T23:06:02.890Z,72.30
2018-07-12T23:08:32.767Z,72.60
2018-07-12T23:11:02.440Z,72.40
2018-07-12T23:13:32.126Z,72.70
2018-07-12T23:16:01.794Z,72.60
2018-07-12T23:18:31.494Z,72.00
2018-07-12T23:21:01.163Z,71.90
2018-07-12T23:23:30.899Z,71.90
2018-07-12T23:26:00.598Z,72.40
2018-07-12T23:28:30.305Z,72.30
2018-07-12T23:30:59.990Z,72.80
2018-07-12T23:33:29.739Z,73.00
2018-07-12T23:35:59.433Z,72.60
2018-07-12T23:38:29.140Z,72.90
2018-07-12T23:40:58.807Z,72.70
2018-07-12T23:43:28.508Z,72.70
2018-07-12T23:45:58.223Z,72.90
2018-07-12T23:48:27.899Z,72.80
2018-07-12T23:50:57.567Z,72.80
2018-07-12T23:53:27.259Z,73.30
2018-07-12T23:55:56.899Z,73.30
2018-07-12T23:58:26.567Z,73.30
